createdAt,value
2022-09-02T00:00:46.673Z,77.80
2022-09-02T00:03:14.156Z,78.00
2022-09-02T00:05:41.021Z,79.20
2022-09-02T00:08:07.782Z,81.50
2022-09-02T00:10:36.444Z,81.70
2022-09-02T00:13:03.768Z,82.20
2022-09-02T00:15:30.598Z,83.10
2022-09-02T00:17:57.784Z,84.30
2022-09-02T00:20:25.942Z,85.10
2022-09-02T00:22:52.660Z,86.80
2022-09-02T00:25:19.383Z,87.20
2022-09-02T00:27:46.068Z,86.90
2022-09-02T00:30:13.251Z,86.50
2022-09-02T00:32:40.015Z,86.00
2022-09-02T00:35:07.306Z,83.00
2022-09-02T00:37:34.075Z,80.00
2022-09-02T00:40:01.504Z,78.70
2022-09-02T00:42:28.299Z,75.10
2022-09-02T00:44:55.035Z,72.50
2022-09-02T00:47:22.955Z,72.10
2022-09-02T00:49:51.456Z,70.90
2022-09-02T00:52:24.144Z,69.80
2022-09-02T00:54:53.376Z,68.20
2022-09-02T00:57:23.284Z,67.90
2022-09-02T01:00:02.243Z,67.00
2022-09-02T01:02:31.652Z,64.90
2022-09-02T01:05:00.524Z,65.00
2022-09-02T01:07:34.225Z,65.60
2022-09-02T01:10:09.636Z,68.30
2022-09-02T01:12:37.434Z,68.70
2022-09-02T01:15:06.182Z,68.60
2022-09-02T01:17:34.783Z,69.00
2022-09-02T01:20:07.216Z,68.50
2022-09-02T01:22:34.438Z,68.00
2022-09-02T01:25:06.268Z,69.50
2022-09-02T01:27:33.826Z,71.50
2022-09-02T01:30:01.305Z,72.20
2022-09-02T01:32:30.061Z,71.00
2022-09-02T01:34:57.918Z,69.30
2022-09-02T01:37:24.823Z,67.00
2022-09-02T01:39:52.590Z,66.00
2022-09-02T01:42:21.293Z,64.00
2022-09-02T01:44:48.858Z,64.10
2022-09-02T01:47:19.677Z,65.70
2022-09-02T01:49:46.849Z,70.70
2022-09-02T01:52:13.889Z,73.40
2022-09-02T01:54:41.395Z,74.20
2022-09-02T01:57:08.815Z,74.50
2022-09-02T01:59:35.705Z,77.50
2022-09-02T02:02:02.999Z,80.50
2022-09-02T02:04:30.042Z,81.50
2022-09-02T02:06:57.140Z,80.40
2022-09-02T02:09:24.065Z,79.50
2022-09-02T02:11:51.191Z,79.60
2022-09-02T02:14:18.324Z,79.40
2022-09-02T02:16:46.518Z,78.50
2022-09-02T02:19:13.616Z,78.40
2022-09-02T02:21:40.485Z,78.20
2022-09-02T02:24:08.469Z,78.40
2022-09-02T02:26:36.574Z,78.50
2022-09-02T02:29:03.715Z,78.30
2022-09-02T02:31:30.629Z,78.40
2022-09-02T02:33:57.972Z,78.80
2022-09-02T02:36:24.782Z,80.50
2022-09-02T02:38:51.903Z,81.20
2022-09-02T02:41:18.878Z,81.20
2022-09-02T02:43:45.709Z,81.70
2022-09-02T02:46:12.620Z,82.70
2022-09-02T02:48:39.744Z,82.70
2022-09-02T02:51:10.483Z,83.40
2022-09-02T02:53:37.563Z,83.10
2022-09-02T02:56:05.988Z,82.70
2022-09-02T02:58:33.052Z,82.10
2022-09-02T03:01:01.012Z,81.60
2022-09-02T03:03:28.541Z,81.80
2022-09-02T03:05:55.607Z,78.40
2022-09-02T03:08:25.732Z,78.10
2022-09-02T03:10:55.599Z,77.40
2022-09-02T03:13:24.422Z,74.90
2022-09-02T03:15:51.463Z,72.80
2022-09-02T03:18:19.583Z,73.00
2022-09-02T03:20:46.767Z,71.10
2022-09-02T03:23:13.991Z,73.70
2022-09-02T03:25:44.005Z,69.70
2022-09-02T03:28:11.888Z,70.80
2022-09-02T03:30:39.772Z,69.50
2022-09-02T03:33:07.216Z,67.80
2022-09-02T03:35:39.944Z,68.10
2022-09-02T03:38:07.921Z,67.20
2022-09-02T03:40:35.393Z,67.50
2022-09-02T03:43:02.528Z,68.80
2022-09-02T03:45:29.978Z,71.50
2022-09-02T03:47:58.091Z,74.00
2022-09-02T03:50:31.532Z,74.90
2022-09-02T03:52:59.872Z,75.60
2022-09-02T03:55:27.132Z,74.00
2022-09-02T03:57:54.527Z,74.10
2022-09-02T04:00:24.529Z,74.40
2022-09-02T04:02:55.346Z,72.90
2022-09-02T04:05:23.979Z,72.80
2022-09-02T04:07:52.696Z,72.00
2022-09-02T04:10:21.926Z,73.80
2022-09-02T04:12:49.764Z,72.60
2022-09-02T04:15:16.659Z,73.70
2022-09-02T04:17:43.505Z,73.70
2022-09-02T04:20:12.682Z,73.10
2022-09-02T04:22:40.106Z,73.40
2022-09-02T04:25:08.359Z,73.40
2022-09-02T04:27:35.641Z,73.40
2022-09-02T04:30:02.690Z,74.70
2022-09-02T04:32:29.535Z,73.60
2022-09-02T04:34:57.147Z,73.80
2022-09-02T04:37:24.031Z,72.90
2022-09-02T04:39:51.002Z,72.90
2022-09-02T04:42:17.791Z,72.90
2022-09-02T04:44:46.547Z,72.90
2022-09-02T04:47:13.505Z,72.90
2022-09-02T04:49:43.166Z,73.90
2022-09-02T04:52:10.691Z,73.70
2022-09-02T04:54:37.798Z,74.90
2022-09-02T04:57:05.114Z,74.30
2022-09-02T04:59:36.418Z,75.50
2022-09-02T05:02:05.460Z,75.20
2022-09-02T05:04:33.475Z,74.10
2022-09-02T05:07:03.060Z,73.20
2022-09-02T05:09:31.470Z,73.70
2022-09-02T05:11:58.413Z,73.80
2022-09-02T05:14:25.926Z,73.70
2022-09-02T05:16:53.988Z,74.60
2022-09-02T05:19:24.381Z,74.20
2022-09-02T05:21:55.219Z,74.50
2022-09-02T05:24:26.305Z,76.40
2022-09-02T05:26:53.672Z,74.80
2022-09-02T05:29:21.022Z,74.60
2022-09-02T05:31:48.814Z,75.50
2022-09-02T05:34:16.914Z,75.80
2022-09-02T05:36:44.351Z,74.70
2022-09-02T05:39:11.409Z,72.90
2022-09-02T05:41:38.216Z,73.10
2022-09-02T05:44:06.575Z,72.50
2022-09-02T05:46:34.359Z,70.90
2022-09-02T05:49:08.886Z,70.50
2022-09-02T05:51:41.608Z,69.20
2022-09-02T05:54:11.403Z,68.80
2022-09-02T05:56:40.539Z,69.40
2022-09-02T05:59:12.747Z,69.30
2022-09-02T06:01:39.634Z,68.40
2022-09-02T06:04:07.823Z,68.40
2022-09-02T06:06:38.747Z,68.80
2022-09-02T06:09:08.545Z,69.10
2022-09-02T06:11:39.952Z,68.30
2022-09-02T06:14:08.215Z,68.10
2022-09-02T06:16:36.119Z,68.20
2022-09-02T06:19:04.149Z,68.30
2022-09-02T06:21:32.119Z,68.30
2022-09-02T06:23:59.734Z,68.30
2022-09-02T06:26:27.179Z,68.50
2022-09-02T06:28:53.991Z,68.80
2022-09-02T06:31:22.990Z,69.20
2022-09-02T06:33:54.119Z,69.10
2022-09-02T06:36:22.346Z,70.30
2022-09-02T06:38:57.380Z,69.60
2022-09-02T06:41:28.400Z,69.60
2022-09-02T06:44:01.627Z,69.10
2022-09-02T06:46:36.212Z,69.40
2022-09-02T06:49:05.279Z,69.30
2022-09-02T06:51:52.130Z,69.00
2022-09-02T06:54:20.926Z,69.20
2022-09-02T06:56:49.810Z,70.40
2022-09-02T06:59:18.751Z,70.50
2022-09-02T07:01:46.308Z,69.70
2022-09-02T07:04:31.918Z,70.00
2022-09-02T07:06:58.931Z,71.30
2022-09-02T07:09:31.265Z,71.30
2022-09-02T07:12:04.362Z,70.00
2022-09-02T07:14:36.371Z,68.70
2022-09-02T07:17:03.522Z,66.00
2022-09-02T07:19:30.491Z,65.60
2022-09-02T07:21:57.472Z,66.10
2022-09-02T07:24:24.899Z,66.30
2022-09-02T07:26:55.436Z,65.50
2022-09-02T07:29:23.147Z,63.60
2022-09-02T07:31:50.286Z,63.10
2022-09-02T07:34:18.150Z,62.50
2022-09-02T07:36:48.098Z,63.20
2022-09-02T07:39:15.765Z,63.80
2022-09-02T07:41:46.476Z,65.20
2022-09-02T07:44:14.264Z,61.90
2022-09-02T07:46:41.374Z,62.90
2022-09-02T07:49:12.330Z,62.00
2022-09-02T07:51:42.266Z,60.30
2022-09-02T07:54:10.750Z,60.10
2022-09-02T07:56:37.667Z,59.80
2022-09-02T07:59:04.501Z,60.00
2022-09-02T08:01:32.244Z,58.10
2022-09-02T08:04:01.474Z,58.30
2022-09-02T08:06:34.485Z,57.00
2022-09-02T08:09:04.964Z,58.00
2022-09-02T08:11:32.696Z,58.10
2022-09-02T08:14:00.862Z,57.90
2022-09-02T08:16:28.963Z,59.60
2022-09-02T08:18:56.019Z,60.90
2022-09-02T08:21:22.826Z,61.60
2022-09-02T08:23:50.546Z,61.00
2022-09-02T08:26:18.927Z,62.20
2022-09-02T08:28:45.907Z,63.80
2022-09-02T08:31:12.806Z,64.60
2022-09-02T08:33:39.711Z,65.30
2022-09-02T08:36:09.260Z,65.40
2022-09-02T08:38:36.940Z,64.50
2022-09-02T08:41:13.779Z,64.80
2022-09-02T08:43:43.376Z,63.80
2022-09-02T08:46:15.216Z,63.00
2022-09-02T08:49:14.122Z,63.70
2022-09-02T08:51:53.590Z,63.20
2022-09-02T08:54:31.616Z,63.20
2022-09-02T08:56:59.040Z,63.30
2022-09-02T08:59:28.272Z,63.10
2022-09-02T09:02:17.809Z,62.90
2022-09-02T09:04:54.335Z,64.50
2022-09-02T09:08:21.727Z,62.00
2022-09-02T09:11:28.833Z,61.90
2022-09-02T09:13:58.803Z,61.60
2022-09-02T09:16:58.343Z,62.10
2022-09-02T09:19:48.575Z,61.60
2022-09-02T09:22:22.335Z,61.90
2022-09-02T09:24:50.942Z,61.60
2022-09-02T09:27:23.067Z,61.20
2022-09-02T09:29:51.794Z,61.10
2022-09-02T09:32:30.371Z,61.10
2022-09-02T09:35:01.563Z,62.20
2022-09-02T09:37:48.888Z,60.80
2022-09-02T09:40:21.782Z,60.40
2022-09-02T09:43:22.747Z,61.50
2022-09-02T09:45:51.484Z,60.80
2022-09-02T09:48:31.634Z,60.60
2022-09-02T09:50:58.576Z,60.20
2022-09-02T09:53:29.158Z,60.70
2022-09-02T09:55:57.608Z,59.90
2022-09-02T09:58:37.115Z,59.30
2022-09-02T10:01:18.150Z,59.60
2022-09-02T10:03:54.858Z,59.00
2022-09-02T10:06:36.094Z,60.50
2022-09-02T10:09:07.460Z,59.60
2022-09-02T10:11:36.992Z,58.90
2022-09-02T10:14:10.126Z,59.10
2022-09-02T10:17:07.203Z,58.80
2022-09-02T10:19:37.547Z,58.90
2022-09-02T10:22:16.296Z,58.80
2022-09-02T10:25:02.800Z,58.70
2022-09-02T10:27:44.836Z,60.00
2022-09-02T10:30:21.778Z,59.40
2022-09-02T10:32:51.318Z,57.80
2022-09-02T10:35:33.690Z,57.70
2022-09-02T10:38:05.499Z,57.80
2022-09-02T10:40:58.722Z,57.10
2022-09-02T10:43:31.870Z,57.60
2022-09-02T10:46:01.216Z,57.00
2022-09-02T10:48:52.841Z,57.20
2022-09-02T10:51:23.090Z,57.00
2022-09-02T10:54:11.408Z,57.40
2022-09-02T10:56:50.508Z,57.20
2022-09-02T10:59:34.127Z,57.50
2022-09-02T11:02:13.189Z,56.60
2022-09-02T11:04:56.532Z,55.40
2022-09-02T11:07:32.307Z,55.50
2022-09-02T11:10:25.462Z,54.90
2022-09-02T11:13:20.566Z,54.40
2022-09-02T11:15:57.936Z,55.60
2022-09-02T11:18:50.710Z,55.60
2022-09-02T11:21:39.717Z,55.80
2022-09-02T11:24:10.634Z,56.00
2022-09-02T11:26:42.896Z,55.50
2022-09-02T11:29:16.719Z,54.60
2022-09-02T11:31:58.674Z,54.90
2022-09-02T11:34:37.134Z,55.00
2022-09-02T11:37:10.765Z,56.00
2022-09-02T11:39:54.332Z,56.20
2022-09-02T11:42:31.815Z,56.40
2022-09-02T11:45:23.948Z,56.40
2022-09-02T11:48:04.157Z,56.50
2022-09-02T11:51:08.922Z,55.40
2022-09-02T11:53:40.271Z,56.30
2022-09-02T11:56:17.192Z,57.10
2022-09-02T11:58:49.611Z,58.30
2022-09-02T12:01:24.437Z,58.60
2022-09-02T12:04:41.982Z,57.90
2022-09-02T12:07:08.761Z,57.40
2022-09-02T12:09:56.123Z,58.20
2022-09-02T12:12:39.016Z,58.30
2022-09-02T12:15:06.413Z,57.40
2022-09-02T12:17:42.505Z,57.20
2022-09-02T12:20:46.002Z,58.70
2022-09-02T12:23:52.531Z,58.60
2022-09-02T12:26:39.539Z,58.20
2022-09-02T12:29:24.730Z,57.90
2022-09-02T12:31:53.023Z,58.00
2022-09-02T12:34:25.751Z,58.00
2022-09-02T12:37:00.559Z,58.80
2022-09-02T12:39:27.481Z,58.40
2022-09-02T12:41:57.501Z,58.80
2022-09-02T12:44:39.262Z,59.00
2022-09-02T12:47:23.729Z,58.70
2022-09-02T12:50:04.967Z,58.70
2022-09-02T12:52:34.688Z,57.40
2022-09-02T12:55:30.523Z,57.30
2022-09-02T12:58:22.407Z,57.80
2022-09-02T13:00:52.254Z,57.00
2022-09-02T13:03:36.920Z,57.70
2022-09-02T13:06:32.813Z,55.80
2022-09-02T13:08:59.578Z,56.50
2022-09-02T13:11:49.064Z,56.20
2022-09-02T13:14:24.846Z,56.70
2022-09-02T13:16:51.676Z,55.30
2022-09-02T13:20:04.641Z,56.30
2022-09-02T13:22:56.678Z,54.80
2022-09-02T13:25:57.067Z,55.10
2022-09-02T13:28:48.678Z,56.00
2022-09-02T13:31:22.624Z,56.20
2022-09-02T13:34:05.522Z,55.30
2022-09-02T13:36:37.364Z,54.10
2022-09-02T13:39:18.550Z,52.10
2022-09-02T13:41:46.154Z,52.00
2022-09-02T13:44:28.723Z,51.60
2022-09-02T13:47:13.488Z,51.20
2022-09-02T13:49:47.442Z,51.20
2022-09-02T13:52:51.091Z,50.90
2022-09-02T13:55:13.190Z,50.50
2022-09-02T13:57:45.925Z,50.20
2022-09-02T14:00:15.977Z,50.70
2022-09-02T14:02:59.460Z,51.40
2022-09-02T14:05:29.049Z,51.30
2022-09-02T14:07:59.766Z,51.80
2022-09-02T14:10:28.085Z,51.40
2022-09-02T14:12:56.932Z,51.50
2022-09-02T14:15:30.204Z,51.90
2022-09-02T14:18:07.689Z,51.70
2022-09-02T14:20:35.133Z,50.80
2022-09-02T14:23:02.277Z,51.70
2022-09-02T14:25:48.844Z,52.20
2022-09-02T14:28:21.578Z,50.90
2022-09-02T14:30:56.084Z,51.30
2022-09-02T14:33:22.904Z,51.50
2022-09-02T14:36:02.503Z,51.10
2022-09-02T14:38:54.435Z,51.70
2022-09-02T14:41:26.794Z,51.10
2022-09-02T14:43:57.656Z,51.30
2022-09-02T14:46:33.406Z,50.70
2022-09-02T14:49:07.600Z,50.40
2022-09-02T17:50:30.948Z,79.50
2022-09-02T17:52:57.636Z,79.50
2022-09-02T17:55:24.336Z,79.50
2022-09-02T17:58:14.913Z,79.90
2022-09-02T18:00:45.357Z,79.40
2022-09-02T18:03:24.267Z,79.00
2022-09-02T18:05:58.602Z,80.10
2022-09-02T18:08:33.841Z,80.30
2022-09-02T18:11:06.671Z,81.00
2022-09-02T18:13:54.655Z,80.90
2022-09-02T18:16:28.445Z,81.20
2022-09-02T18:18:55.204Z,81.40
2022-09-02T18:21:28.844Z,82.40
2022-09-02T18:24:18.975Z,82.60
2022-09-02T18:27:03.815Z,82.80
2022-09-02T18:29:38.634Z,83.10
2022-09-02T18:32:18.787Z,83.50
2022-09-02T18:34:51.526Z,83.20
2022-09-02T18:37:34.809Z,84.00
2022-09-02T18:40:04.713Z,83.80
2022-09-02T18:42:45.355Z,84.40
2022-09-02T18:45:20.949Z,84.70
2022-09-02T18:47:52.793Z,84.00
2022-09-02T18:50:55.324Z,85.40
2022-09-02T18:53:23.863Z,85.00
2022-09-02T18:55:51.972Z,84.80
2022-09-02T18:58:34.192Z,84.50
2022-09-02T19:01:03.991Z,85.10
2022-09-02T19:03:33.455Z,86.40
2022-09-02T19:06:00.454Z,85.60
2022-09-02T19:08:30.822Z,85.70
2022-09-02T19:11:01.041Z,86.40
2022-09-02T19:13:29.173Z,85.90
2022-09-02T19:15:59.619Z,87.90
2022-09-02T19:18:30.828Z,87.50
2022-09-02T19:20:57.807Z,88.20
2022-09-02T19:23:24.858Z,87.20
2022-09-02T19:25:51.869Z,88.10
2022-09-02T19:28:19.210Z,86.80
2022-09-02T19:30:46.035Z,86.40
2022-09-02T19:33:13.929Z,86.20
2022-09-02T19:35:42.667Z,86.60
2022-09-02T19:38:13.546Z,86.60
2022-09-02T19:40:40.401Z,86.40
2022-09-02T19:43:07.564Z,86.50
2022-09-02T19:45:37.328Z,87.00
2022-09-02T19:48:07.533Z,86.50
2022-09-02T19:50:45.682Z,86.30
2022-09-02T19:53:18.647Z,86.30
2022-09-02T19:55:45.652Z,86.20
2022-09-02T19:58:12.460Z,86.20
2022-09-02T20:00:42.263Z,86.10
2022-09-02T20:03:09.752Z,86.10
2022-09-02T20:05:38.653Z,86.00
2022-09-02T20:08:05.781Z,86.40
2022-09-02T20:10:32.537Z,86.60
2022-09-02T20:12:59.288Z,86.90
2022-09-02T20:15:26.037Z,86.70
2022-09-02T20:17:52.820Z,87.00
2022-09-02T20:20:22.551Z,87.20
2022-09-02T20:22:52.115Z,87.40
2022-09-02T20:25:20.457Z,87.50
2022-09-02T20:27:47.351Z,87.90
2022-09-02T20:30:15.288Z,88.50
2022-09-02T20:33:05.256Z,88.70
2022-09-02T20:35:50.749Z,90.30
2022-09-02T20:38:32.918Z,90.80
2022-09-02T20:41:21.746Z,90.60
2022-09-02T20:43:51.310Z,90.50
2022-09-02T20:46:26.312Z,90.40
2022-09-02T20:48:53.088Z,90.40
2022-09-02T20:51:25.487Z,90.20
2022-09-02T20:54:12.442Z,90.10
2022-09-02T20:56:47.903Z,90.00
2022-09-02T20:59:41.269Z,89.80
2022-09-02T21:02:09.924Z,89.50
2022-09-02T21:04:50.633Z,89.40
2022-09-02T21:07:20.176Z,89.10
2022-09-02T21:09:50.674Z,89.00
2022-09-02T21:12:20.136Z,88.70
2022-09-02T21:14:48.163Z,88.50
2022-09-02T21:17:19.823Z,88.30
2022-09-02T21:19:53.547Z,88.40
2022-09-02T21:22:23.502Z,88.10
2022-09-02T21:24:59.070Z,88.10
2022-09-02T21:27:28.583Z,87.90
2022-09-02T21:30:02.317Z,87.60
2022-09-02T21:32:49.846Z,87.20
2022-09-02T21:35:22.223Z,86.60
2022-09-02T21:37:50.773Z,85.90
2022-09-02T21:40:18.884Z,85.90
2022-09-02T21:42:48.597Z,85.20
2022-09-02T21:45:24.707Z,85.10
2022-09-02T21:47:57.541Z,85.20
2022-09-02T21:50:28.891Z,85.10
2022-09-02T21:53:04.728Z,84.50
2022-09-02T21:55:31.422Z,84.20
2022-09-02T21:58:05.240Z,83.90
2022-09-02T22:00:33.404Z,83.80
2022-09-02T22:03:00.135Z,83.90
2022-09-02T22:05:29.575Z,83.30
2022-09-02T22:08:04.632Z,81.90
2022-09-02T22:10:43.259Z,81.50
2022-09-02T22:13:10.379Z,81.50
2022-09-02T22:15:43.427Z,81.30
2022-09-02T22:18:16.784Z,81.20
2022-09-02T22:20:45.173Z,81.00
2022-09-02T22:23:38.226Z,80.40
2022-09-02T22:26:18.119Z,80.50
2022-09-02T22:28:47.245Z,80.20
2022-09-02T22:31:16.313Z,80.40
2022-09-02T22:33:47.905Z,80.50
2022-09-02T22:36:18.838Z,80.30
2022-09-02T22:38:47.183Z,80.20
2022-09-02T22:41:24.692Z,80.30
2022-09-02T22:44:09.488Z,80.10
2022-09-02T22:47:02.932Z,80.30
2022-09-02T22:49:51.898Z,80.20
2022-09-02T22:52:44.744Z,80.40
2022-09-02T22:55:12.387Z,80.70
2022-09-02T22:57:45.505Z,80.90
2022-09-02T23:00:13.421Z,80.50
2022-09-02T23:02:59.003Z,80.60
2022-09-02T23:05:44.928Z,79.90
2022-09-02T23:08:15.392Z,79.70
2022-09-02T23:10:48.778Z,79.60
2022-09-02T23:13:24.036Z,79.60
2022-09-02T23:15:58.645Z,79.70
2022-09-02T23:18:36.997Z,79.50
2022-09-02T23:21:16.825Z,79.00
2022-09-02T23:23:53.311Z,79.20
2022-09-02T23:26:30.416Z,79.20
2022-09-02T23:28:57.138Z,78.80
2022-09-02T23:31:37.079Z,79.00
2022-09-02T23:34:28.115Z,79.30
2022-09-02T23:37:09.590Z,78.90
2022-09-02T23:39:45.448Z,78.50
2022-09-02T23:42:12.891Z,78.30
2022-09-02T23:44:39.667Z,78.40
2022-09-02T23:47:25.456Z,78.20
2022-09-02T23:50:06.838Z,78.30
2022-09-02T23:52:43.261Z,77.80
2022-09-02T23:55:17.835Z,77.20
2022-09-02T23:57:44.587Z,77.30
